createdAt,value
2019-01-18T00:00:10.644Z,97.50
2019-01-18T00:02:39.052Z,97.60
2019-01-18T00:05:07.423Z,97.60
2019-01-18T00:07:35.811Z,97.50
2019-01-18T00:10:07.480Z,97.00
2019-01-18T00:12:36.199Z,96.80
2019-01-18T00:15:07.984Z,96.80
2019-01-18T00:17:36.372Z,96.30
2019-01-18T00:20:10.940Z,96.30
2019-01-18T00:22:39.324Z,96.00
2019-01-18T00:25:08.543Z,96.30
2019-01-18T00:27:37.188Z,96.60
2019-01-18T00:30:14.749Z,96.70
2019-01-18T00:32:43.144Z,96.50
2019-01-18T00:35:11.516Z,96.30
2019-01-18T00:37:39.884Z,96.50
2019-01-18T00:40:11.662Z,96.50
2019-01-18T00:42:40.033Z,96.10
2019-01-18T00:45:11.479Z,96.30
2019-01-18T00:47:39.847Z,96.60
2019-01-18T00:50:11.675Z,96.00
2019-01-18T00:52:40.151Z,94.60
2019-01-18T00:55:09.633Z,94.40
2019-01-18T00:57:37.960Z,94.10
2019-01-18T01:00:15.933Z,94.20
2019-01-18T01:02:44.299Z,93.50
2019-01-18T01:05:12.695Z,93.30
2019-01-18T01:07:41.056Z,93.10
2019-01-18T01:10:12.329Z,93.20
2019-01-18T01:12:40.800Z,93.00
2019-01-18T01:15:12.758Z,93.00
2019-01-18T01:17:41.235Z,93.30
2019-01-18T01:20:11.403Z,93.00
2019-01-18T01:22:39.767Z,92.90
2019-01-18T01:25:10.051Z,92.90
2019-01-18T01:27:38.484Z,92.60
2019-01-18T01:30:21.927Z,92.80
2019-01-18T01:32:50.340Z,92.90
2019-01-18T01:35:18.957Z,92.70
2019-01-18T01:37:47.336Z,92.80
2019-01-18T01:40:20.572Z,92.90
2019-01-18T01:42:48.946Z,92.90
2019-01-18T01:45:17.341Z,92.50
2019-01-18T01:47:45.703Z,92.90
2019-01-18T01:50:17.132Z,93.00
2019-01-18T01:52:45.505Z,92.50
2019-01-18T01:55:13.900Z,93.30
2019-01-18T01:57:42.595Z,93.20
2019-01-18T02:00:22.701Z,93.20
2019-01-18T02:02:51.060Z,93.60
2019-01-18T02:05:19.456Z,93.60
2019-01-18T02:07:47.825Z,93.20
2019-01-18T02:10:17.859Z,93.30
2019-01-18T02:12:46.233Z,93.50
2019-01-18T02:15:23.186Z,93.50
2019-01-18T02:17:51.552Z,93.80
2019-01-18T02:20:21.584Z,94.00
2019-01-18T02:22:50.500Z,93.70
2019-01-18T02:25:18.943Z,94.00
2019-01-18T02:27:47.629Z,94.10
2019-01-18T02:30:21.663Z,94.20
2019-01-18T02:32:50.036Z,93.90
2019-01-18T02:35:18.406Z,93.70
2019-01-18T02:37:46.801Z,93.90
2019-01-18T02:40:15.601Z,93.90
2019-01-18T02:42:44.164Z,94.00
2019-01-18T02:45:17.921Z,94.00
2019-01-18T02:47:46.368Z,93.80
2019-01-18T02:50:14.747Z,93.50
2019-01-18T02:52:43.133Z,93.40
2019-01-18T02:55:11.496Z,93.60
2019-01-18T02:57:39.884Z,93.60
2019-01-18T03:00:14.380Z,93.50
2019-01-18T03:02:43.147Z,94.30
2019-01-18T03:05:13.165Z,93.90
2019-01-18T03:07:41.589Z,94.00
2019-01-18T03:10:15.775Z,93.80
2019-01-18T03:12:44.173Z,93.80
2019-01-18T03:15:12.624Z,93.60
2019-01-18T03:17:41.065Z,93.70
2019-01-18T03:20:11.767Z,93.90
2019-01-18T03:22:40.250Z,93.70
2019-01-18T03:25:11.574Z,93.90
2019-01-18T03:27:40.337Z,93.70
2019-01-18T03:30:19.353Z,93.60
2019-01-18T03:32:42.156Z,93.70
2019-01-18T03:35:12.152Z,93.70
2019-01-18T03:37:40.547Z,94.10
2019-01-18T03:40:11.987Z,94.10
2019-01-18T03:42:40.386Z,94.20
2019-01-18T03:45:14.550Z,94.10
2019-01-18T03:47:42.947Z,94.10
2019-01-18T03:50:35.061Z,94.10
2019-01-18T03:53:03.859Z,94.50
2019-01-18T03:55:32.235Z,94.20
2019-01-18T03:58:00.630Z,94.40
2019-01-18T04:00:29.267Z,94.20
2019-01-18T04:02:57.665Z,94.20
2019-01-18T04:05:26.106Z,94.40
2019-01-18T04:07:54.752Z,94.60
2019-01-18T04:10:23.291Z,94.60
2019-01-18T04:12:51.703Z,94.60
2019-01-18T04:15:22.026Z,94.60
2019-01-18T04:17:50.418Z,94.30
2019-01-18T04:20:20.035Z,94.20
2019-01-18T04:22:48.692Z,94.20
2019-01-18T04:25:18.982Z,94.50
2019-01-18T04:27:47.372Z,94.90
2019-01-18T04:30:18.371Z,94.70
2019-01-18T04:32:46.749Z,94.70
2019-01-18T04:35:15.262Z,94.90
2019-01-18T04:37:43.818Z,94.60
2019-01-18T04:40:14.843Z,94.60
2019-01-18T04:42:43.299Z,94.60
2019-01-18T04:45:11.705Z,94.50
2019-01-18T04:47:40.231Z,94.60
2019-01-18T04:50:12.136Z,94.60
2019-01-18T04:52:40.896Z,94.70
2019-01-18T04:55:09.834Z,94.80
2019-01-18T04:57:38.211Z,94.80
2019-01-18T05:00:09.925Z,95.30
2019-01-18T05:02:38.304Z,95.50
2019-01-18T05:05:07.053Z,95.60
2019-01-18T05:07:35.433Z,95.40
2019-01-18T05:10:06.955Z,95.30
2019-01-18T05:12:35.341Z,95.10
2019-01-18T05:15:06.047Z,95.30
2019-01-18T05:17:34.701Z,95.20
2019-01-18T05:20:03.112Z,95.20
2019-01-18T05:22:31.588Z,95.00
2019-01-18T05:24:59.999Z,95.30
2019-01-18T05:27:29.792Z,95.30
2019-01-18T05:29:58.562Z,95.30
2019-01-18T05:32:26.873Z,95.20
2019-01-18T05:34:55.282Z,95.30
2019-01-18T05:37:23.666Z,94.80
2019-01-18T05:39:52.067Z,94.80
2019-01-18T05:42:20.448Z,94.90
2019-01-18T05:44:48.842Z,94.90
2019-01-18T05:47:17.224Z,94.80
2019-01-18T05:49:45.633Z,94.70
2019-01-18T05:52:14.005Z,94.90
2019-01-18T05:54:42.400Z,95.00
2019-01-18T05:57:11.152Z,94.90
2019-01-18T05:59:39.549Z,94.70
2019-01-18T06:02:07.932Z,94.90
2019-01-18T06:04:36.349Z,94.80
2019-01-18T06:07:05.020Z,94.90
2019-01-18T06:09:33.484Z,94.70
2019-01-18T06:12:01.851Z,94.80
2019-01-18T06:14:30.543Z,94.50
2019-01-18T06:16:58.938Z,94.50
2019-01-18T06:19:27.335Z,94.50
2019-01-18T06:21:55.731Z,94.40
2019-01-18T06:24:24.092Z,94.30
2019-01-18T06:26:52.488Z,94.50
2019-01-18T06:29:20.855Z,94.50
2019-01-18T06:31:49.248Z,94.60
2019-01-18T06:34:17.667Z,94.40
2019-01-18T06:36:46.393Z,94.40
2019-01-18T06:39:14.762Z,94.50
2019-01-18T06:41:44.528Z,94.40
2019-01-18T06:44:12.916Z,94.10
2019-01-18T06:46:41.616Z,94.20
2019-01-18T06:49:11.119Z,94.10
2019-01-18T06:51:39.519Z,94.10
2019-01-18T06:54:07.888Z,94.00
2019-01-18T06:56:36.299Z,94.60
2019-01-18T06:59:04.741Z,94.90
2019-01-18T07:01:33.141Z,94.80
2019-01-18T07:04:01.515Z,94.70
2019-01-18T07:06:29.913Z,94.40
2019-01-18T07:08:58.291Z,94.40
2019-01-18T07:11:26.704Z,94.40
2019-01-18T07:13:55.067Z,94.50
2019-01-18T07:16:23.548Z,94.60
2019-01-18T07:18:52.331Z,94.30
2019-01-18T07:21:20.723Z,94.50
2019-01-18T07:23:49.108Z,94.40
2019-01-18T07:26:17.504Z,94.50
2019-01-18T07:28:45.872Z,94.50
2019-01-18T07:31:15.223Z,94.50
2019-01-18T07:33:44.095Z,94.40
2019-01-18T07:36:12.495Z,94.30
2019-01-18T07:38:40.969Z,94.10
2019-01-18T07:41:09.372Z,93.80
2019-01-18T07:43:37.752Z,93.60
2019-01-18T07:46:06.155Z,93.40
2019-01-18T07:48:34.512Z,93.40
2019-01-18T07:51:02.911Z,93.20
2019-01-18T07:53:31.564Z,93.10
2019-01-18T07:55:59.952Z,92.50
2019-01-18T07:58:28.696Z,92.20
2019-01-18T08:00:57.582Z,91.40
2019-01-18T08:03:27.958Z,91.40
2019-01-18T08:05:56.841Z,91.50
2019-01-18T08:08:25.185Z,91.20
2019-01-18T08:10:53.545Z,91.70
2019-01-18T08:13:21.932Z,91.90
2019-01-18T08:15:50.308Z,92.40
2019-01-18T08:18:18.700Z,92.40
2019-01-18T08:20:47.080Z,92.60
2019-01-18T08:23:15.824Z,92.70
2019-01-18T08:25:44.451Z,92.60
2019-01-18T08:28:12.857Z,92.90
2019-01-18T08:30:41.238Z,93.20
2019-01-18T08:33:09.620Z,93.70
2019-01-18T08:35:37.988Z,93.00
2019-01-18T08:38:06.380Z,92.90
2019-01-18T08:40:36.596Z,92.80
2019-01-18T08:43:06.732Z,92.80
2019-01-18T08:45:40.752Z,93.30
2019-01-18T08:48:09.429Z,92.80
2019-01-18T08:50:38.368Z,92.90
2019-01-18T08:53:06.741Z,92.60
2019-01-18T08:55:35.250Z,92.50
2019-01-18T08:58:03.611Z,92.20
2019-01-18T09:00:32.580Z,92.30
2019-01-18T09:03:00.961Z,92.40
2019-01-18T09:05:29.837Z,91.40
2019-01-18T09:07:58.488Z,91.70
2019-01-18T09:10:29.749Z,91.30
2019-01-18T09:12:58.207Z,91.20
2019-01-18T09:15:26.581Z,91.10
2019-01-18T09:17:55.063Z,91.50
2019-01-18T09:20:25.368Z,91.30
2019-01-18T09:22:53.783Z,91.10
2019-01-18T09:25:22.507Z,91.20
2019-01-18T09:27:50.915Z,91.30
2019-01-18T09:30:21.195Z,91.20
2019-01-18T09:32:50.104Z,91.10
2019-01-18T09:35:23.775Z,90.90
2019-01-18T09:37:52.992Z,90.50
2019-01-18T09:40:24.058Z,89.80
2019-01-18T09:42:52.456Z,88.70
2019-01-18T09:45:20.825Z,89.00
2019-01-18T09:47:49.288Z,88.10
2019-01-18T09:50:22.899Z,86.30
2019-01-18T09:52:51.303Z,86.10
2019-01-18T09:55:21.314Z,86.50
2019-01-18T09:57:49.690Z,85.50
2019-01-18T10:00:27.346Z,84.20
2019-01-18T10:02:56.149Z,81.20
2019-01-18T10:05:24.557Z,84.10
2019-01-18T10:07:52.929Z,86.40
2019-01-18T10:10:23.137Z,85.20
2019-01-18T10:12:51.439Z,84.40
2019-01-18T10:15:25.895Z,84.40
2019-01-18T10:18:00.374Z,83.80
2019-01-18T10:20:24.444Z,84.80
2019-01-18T10:22:53.017Z,86.70
2019-01-18T10:25:21.416Z,85.30
2019-01-18T10:27:49.782Z,87.40
2019-01-18T10:30:25.804Z,86.90
2019-01-18T10:32:54.147Z,86.10
2019-01-18T10:35:23.893Z,85.00
2019-01-18T10:37:52.568Z,84.30
2019-01-18T10:40:21.297Z,83.70
2019-01-18T10:42:50.176Z,82.50
2019-01-18T10:45:19.508Z,81.00
2019-01-18T10:47:48.807Z,79.60
2019-01-18T10:50:22.423Z,76.60
2019-01-18T10:52:50.873Z,76.30
2019-01-18T10:55:19.265Z,76.10
2019-01-18T10:57:47.631Z,75.20
2019-01-18T11:00:27.436Z,74.70
2019-01-18T11:02:55.916Z,73.00
2019-01-18T11:05:24.543Z,72.30
2019-01-18T11:07:52.912Z,71.30
2019-01-18T11:10:21.578Z,71.30
2019-01-18T11:12:49.944Z,71.70
2019-01-18T11:15:24.078Z,71.50
2019-01-18T11:17:52.439Z,72.20
2019-01-18T11:20:24.048Z,72.70
2019-01-18T11:22:53.564Z,72.70
2019-01-18T11:25:22.824Z,73.70
2019-01-18T11:27:51.215Z,75.00
2019-01-18T11:30:19.616Z,76.60
2019-01-18T11:32:47.989Z,77.90
2019-01-18T11:35:16.555Z,78.10
2019-01-18T11:37:44.958Z,77.70
2019-01-18T11:40:17.604Z,78.80
2019-01-18T11:42:46.040Z,77.50
2019-01-18T11:45:14.842Z,78.50
2019-01-18T11:47:43.221Z,78.40
2019-01-18T11:50:22.879Z,77.60
2019-01-18T11:52:51.391Z,78.60
2019-01-18T11:55:20.234Z,78.30
2019-01-18T11:57:48.596Z,77.70
2019-01-18T12:00:23.167Z,78.10
2019-01-18T12:02:51.535Z,77.10
2019-01-18T12:05:19.957Z,76.60
2019-01-18T12:07:49.607Z,76.60
2019-01-18T12:10:21.219Z,77.00
2019-01-18T12:12:49.615Z,78.10
2019-01-18T12:15:17.992Z,76.80
2019-01-18T12:17:46.393Z,76.50
2019-01-18T12:20:20.436Z,75.70
2019-01-18T12:22:48.852Z,75.60
2019-01-18T12:25:17.223Z,74.60
2019-01-18T12:27:45.588Z,74.50
2019-01-18T12:30:19.421Z,74.00
2019-01-18T12:32:47.832Z,75.40
2019-01-18T12:35:16.220Z,76.50
2019-01-18T12:37:44.629Z,75.90
2019-01-18T12:40:13.064Z,76.10
2019-01-18T12:42:41.448Z,74.90
2019-01-18T12:45:12.589Z,73.50
2019-01-18T12:47:40.956Z,74.00
2019-01-18T12:50:27.039Z,71.00
2019-01-18T12:52:55.399Z,69.50
2019-01-18T12:55:23.812Z,69.50
2019-01-18T12:57:52.250Z,71.30
2019-01-18T13:00:25.176Z,70.40
2019-01-18T13:02:53.577Z,69.40
2019-01-18T13:05:30.780Z,68.80
2019-01-18T13:07:59.304Z,68.10
2019-01-18T13:10:27.681Z,67.20
2019-01-18T13:12:56.072Z,66.90
2019-01-18T13:15:30.147Z,66.30
2019-01-18T13:17:58.553Z,67.30
2019-01-18T13:20:27.094Z,68.40
2019-01-18T13:22:55.527Z,66.70
2019-01-18T13:25:23.904Z,67.00
2019-01-18T13:27:52.291Z,67.80
2019-01-18T13:30:20.669Z,68.90
2019-01-18T13:32:49.056Z,70.20
2019-01-18T13:35:17.758Z,70.60
2019-01-18T13:37:46.204Z,70.60
2019-01-18T13:40:17.239Z,70.00
2019-01-18T13:42:45.702Z,70.70
2019-01-18T13:45:14.588Z,71.10
2019-01-18T13:47:44.341Z,72.90
2019-01-18T13:50:15.404Z,73.10
2019-01-18T13:52:43.796Z,73.90
2019-01-18T13:55:15.220Z,74.60
2019-01-18T13:57:43.596Z,74.30
2019-01-18T14:00:13.832Z,73.50
2019-01-18T14:02:48.232Z,73.80
2019-01-18T14:05:13.007Z,77.50
2019-01-18T14:07:41.495Z,78.80
2019-01-18T14:10:13.336Z,80.10
2019-01-18T14:12:41.716Z,80.80
2019-01-18T14:15:14.924Z,82.20
2019-01-18T14:17:43.367Z,82.00
2019-01-18T14:20:14.107Z,82.80
2019-01-18T14:22:45.318Z,84.00
2019-01-18T14:25:14.584Z,84.30
2019-01-18T14:27:43.019Z,85.10
2019-01-18T14:30:14.624Z,85.00
2019-01-18T14:32:43.056Z,85.00
2019-01-18T14:35:11.452Z,85.90
2019-01-18T14:37:39.827Z,86.70
2019-01-18T14:40:11.269Z,88.00
2019-01-18T14:42:39.913Z,87.50
2019-01-18T14:45:11.675Z,89.10
2019-01-18T14:47:40.055Z,89.10
2019-01-18T14:50:13.216Z,89.60
2019-01-18T14:52:41.758Z,90.10
2019-01-18T14:55:10.148Z,90.40
2019-01-18T14:57:38.592Z,90.40
2019-01-18T15:00:13.623Z,91.10
2019-01-18T15:02:41.991Z,91.30
2019-01-18T15:05:11.453Z,91.40
2019-01-18T15:07:39.900Z,91.40
2019-01-18T15:10:17.379Z,90.80
2019-01-18T15:12:46.293Z,90.70
2019-01-18T15:15:15.592Z,91.50
2019-01-18T15:17:45.278Z,92.30
2019-01-18T15:20:22.420Z,92.40
2019-01-18T15:22:50.788Z,92.50
2019-01-18T15:25:19.190Z,92.00
2019-01-18T15:27:47.563Z,92.30
2019-01-18T15:30:30.109Z,92.80
2019-01-18T15:32:58.475Z,93.20
2019-01-18T15:35:33.102Z,93.00
2019-01-18T15:38:01.708Z,93.00
2019-01-18T15:40:33.833Z,93.40
2019-01-18T15:43:02.664Z,92.50
2019-01-18T15:45:31.060Z,92.90
2019-01-18T15:47:59.436Z,94.20
2019-01-18T15:50:30.476Z,95.00
2019-01-18T15:52:58.848Z,94.60
2019-01-18T15:55:27.392Z,94.40
2019-01-18T15:57:55.825Z,94.40
2019-01-18T16:00:29.984Z,94.70
2019-01-18T16:02:58.352Z,95.40
2019-01-18T16:05:26.864Z,95.20
2019-01-18T16:07:55.256Z,95.80
2019-01-18T16:10:25.085Z,95.50
2019-01-18T16:12:53.856Z,95.40
2019-01-18T16:15:28.820Z,95.40
2019-01-18T16:17:57.662Z,95.70
2019-01-18T16:20:26.104Z,95.60
2019-01-18T16:22:54.500Z,95.50
2019-01-18T16:25:28.616Z,95.30
2019-01-18T16:27:57.007Z,95.30
2019-01-18T16:30:26.637Z,94.90
2019-01-18T16:32:56.988Z,94.90
2019-01-18T16:35:25.879Z,94.90
2019-01-18T16:37:54.377Z,95.10
2019-01-18T16:40:31.229Z,95.40
2019-01-18T16:43:08.633Z,95.60
2019-01-18T16:45:37.067Z,95.50
2019-01-18T16:48:05.470Z,95.30
2019-01-18T16:50:33.928Z,96.20
2019-01-18T16:53:02.545Z,95.30
2019-01-18T16:55:30.922Z,96.10
2019-01-18T16:58:00.098Z,95.20
2019-01-18T17:00:40.433Z,95.40
2019-01-18T17:03:09.603Z,95.50
2019-01-18T17:05:38.020Z,96.00
2019-01-18T17:08:06.674Z,96.20
2019-01-18T17:10:35.052Z,97.30
2019-01-18T17:13:03.632Z,99.30
2019-01-18T17:15:33.184Z,96.30
2019-01-18T17:18:01.629Z,96.20
2019-01-18T17:20:36.281Z,96.10
2019-01-18T17:23:04.727Z,95.90
2019-01-18T17:25:33.274Z,95.50
2019-01-18T17:28:01.691Z,94.60
2019-01-18T17:30:30.048Z,93.90
2019-01-18T17:32:58.521Z,93.50
2019-01-18T17:35:51.492Z,93.20
2019-01-18T17:38:29.293Z,92.30
2019-01-18T17:41:12.944Z,93.00
2019-01-18T17:44:18.009Z,97.80
2019-01-18T17:47:04.752Z,92.80
2019-01-18T17:49:39.923Z,95.00
2019-01-18T17:52:17.566Z,96.30
2019-01-18T17:54:52.273Z,97.30
2019-01-18T17:57:42.007Z,98.00
2019-01-18T18:00:30.310Z,97.60
2019-01-18T18:03:17.207Z,99.90
2019-01-18T18:05:54.903Z,96.70
2019-01-18T18:08:34.694Z,97.30
2019-01-18T18:11:12.287Z,96.00
2019-01-18T18:14:02.269Z,95.70
2019-01-18T18:16:33.947Z,95.30
2019-01-18T18:19:17.453Z,95.10
2019-01-18T18:21:52.217Z,95.60
2019-01-18T18:24:32.756Z,95.10
2019-01-18T18:27:13.456Z,95.30
2019-01-18T18:29:47.982Z,95.50
2019-01-18T18:32:34.543Z,95.10
2019-01-18T18:35:41.405Z,95.30
2019-01-18T18:38:28.293Z,96.00
2019-01-18T18:41:05.692Z,95.40
2019-01-18T18:43:46.371Z,95.50
2019-01-18T18:46:39.223Z,95.20
2019-01-18T18:49:27.464Z,95.60
2019-01-18T18:51:59.368Z,95.80
2019-01-18T18:54:31.171Z,96.20
2019-01-18T18:57:09.088Z,96.10
2019-01-18T18:59:50.050Z,96.10
2019-01-18T19:02:38.939Z,96.20
2019-01-18T19:05:19.571Z,96.00
2019-01-18T19:08:07.827Z,97.30
2019-01-18T19:10:42.569Z,95.90
2019-01-18T19:13:26.076Z,95.50
2019-01-18T19:16:09.496Z,95.30
2019-01-18T19:18:50.305Z,94.60
2019-01-18T19:21:47.477Z,93.90
2019-01-18T19:24:24.853Z,93.80
2019-01-18T19:26:59.230Z,94.00
2019-01-18T19:30:04.375Z,93.30
2019-01-18T19:32:48.100Z,93.50
2019-01-18T19:35:37.739Z,93.50
2019-01-18T19:38:29.233Z,94.00
2019-01-18T19:41:20.998Z,93.90
2019-01-18T19:43:55.589Z,94.40
2019-01-18T19:46:33.017Z,94.80
2019-01-18T19:49:12.999Z,94.90
2019-01-18T19:51:53.126Z,95.00
2019-01-18T19:54:36.432Z,95.10
2019-01-18T19:57:13.702Z,95.10
2019-01-18T19:59:57.276Z,95.10
2019-01-18T20:02:40.824Z,95.20
2019-01-18T20:05:33.785Z,95.30
2019-01-18T20:08:05.807Z,95.70
2019-01-18T20:10:46.256Z,95.80
2019-01-18T20:13:29.933Z,95.40
2019-01-18T20:16:10.588Z,95.10
2019-01-18T20:18:48.019Z,95.20
2019-01-18T20:21:28.368Z,95.30
2019-01-18T20:24:15.228Z,95.40
2019-01-18T20:27:20.330Z,95.60
2019-01-18T20:30:07.036Z,95.50
2019-01-18T20:32:50.053Z,95.50
2019-01-18T20:35:45.989Z,95.50
2019-01-18T20:38:26.977Z,95.60
2019-01-18T20:41:04.503Z,95.80
2019-01-18T20:43:45.247Z,95.80
2019-01-18T20:46:19.833Z,95.70
2019-01-18T20:48:57.203Z,95.80
2019-01-18T20:51:28.844Z,95.80
2019-01-18T20:54:26.176Z,95.70
2019-01-18T20:57:25.394Z,95.80
2019-01-18T21:00:03.228Z,95.70
2019-01-18T21:03:00.604Z,95.70
2019-01-18T21:05:34.854Z,95.60
2019-01-18T21:08:15.343Z,95.60
2019-01-18T21:10:59.189Z,96.10
2019-01-18T21:13:47.353Z,95.70
2019-01-18T21:16:33.462Z,95.60
2019-01-18T21:19:14.054Z,95.70
2019-01-18T21:22:14.629Z,95.60
2019-01-18T21:24:57.981Z,95.60
2019-01-18T21:27:44.961Z,95.70
2019-01-18T21:30:47.113Z,95.90
2019-01-18T21:33:37.469Z,96.20
2019-01-18T21:36:30.330Z,96.20
2019-01-18T21:39:20.098Z,96.20
2019-01-18T21:42:10.054Z,96.20
2019-01-18T21:44:47.460Z,96.10
2019-01-18T21:47:25.270Z,96.10
2019-01-18T21:50:16.332Z,96.00
2019-01-18T21:53:04.555Z,96.00
2019-01-18T21:55:38.766Z,95.80
2019-01-18T21:58:29.796Z,95.80
2019-01-18T22:01:10.084Z,95.50
2019-01-18T22:03:44.308Z,95.70
2019-01-18T22:06:27.935Z,95.80
2019-01-18T22:09:08.344Z,95.20
2019-01-18T22:11:56.518Z,95.30
2019-01-18T22:14:43.175Z,95.50
2019-01-18T22:17:20.721Z,95.50
2019-01-18T22:20:11.768Z,95.40
2019-01-18T22:23:01.412Z,95.10
2019-01-18T22:25:51.568Z,95.30
2019-01-18T22:28:32.652Z,95.30
2019-01-18T22:31:25.430Z,95.40
2019-01-18T22:34:00.211Z,95.60
2019-01-18T22:36:52.009Z,95.50
2019-01-18T22:39:23.649Z,95.30
2019-01-18T22:42:19.819Z,95.10
2019-01-18T22:45:06.684Z,94.80
2019-01-18T22:47:40.990Z,94.70
2019-01-18T22:50:24.482Z,94.50
2019-01-18T22:53:31.333Z,95.00
2019-01-18T22:56:39.144Z,94.90
2019-01-18T22:59:43.952Z,94.90
2019-01-18T23:02:24.512Z,95.40
2019-01-18T23:05:14.120Z,95.50
2019-01-18T23:07:57.717Z,95.30
2019-01-18T23:10:41.168Z,95.30
2019-01-18T23:13:41.967Z,95.50
2019-01-18T23:16:22.584Z,95.80
2019-01-18T23:18:59.867Z,95.70
2019-01-18T23:21:55.610Z,95.90
2019-01-18T23:24:30.384Z,95.80
2019-01-18T23:27:04.711Z,95.70
2019-01-18T23:29:45.786Z,96.50
2019-01-18T23:32:41.631Z,95.70
2019-01-18T23:35:25.637Z,95.30
2019-01-18T23:38:08.681Z,95.30
2019-01-18T23:40:42.599Z,95.60
2019-01-18T23:43:26.327Z,95.80
2019-01-18T23:46:00.944Z,95.90
2019-01-18T23:48:51.228Z,96.00
2019-01-18T23:51:42.613Z,96.20
2019-01-18T23:54:23.167Z,96.40
2019-01-18T23:57:14.044Z,96.40
2019-01-18T23:59:48.628Z,96.50
